METAR Data
IDs: Format: Raw Decoded Include TAF

Data at: 1426 UTC 10 Jul 2020

KTCS 101353Z AUTO 32006KT 10SM CLR 29/06 A3018 RMK AO2 SLP113 T02890056

KTCS 101120Z 1012/1112 32007KT P6SM SCT140
  FM101700 02012KT P6SM SCT120 SCT250
  FM110500 31005KT P6SM SCT150 SCT250